Time;durP1;ratioP1;P1;durP2;ratioP2;P2;SDS_P1;SDS_P2;PMS_P1;PMS_P2;Temp;Humidity;BMP_temperature;BMP_pressure;BME280_temperature;BME280_humidity;BME280_pressure;Samples;Min_cycle;Max_cycle;Signal;HPM_P1;HPM_P2
2020/12/25 00:02:04;;;;;;;23.95;12.55;;;3.70;76.80;;;;;;4977087;28;20488;-82
2020/12/25 00:04:30;;;;;;;26.25;13.50;;;3.70;76.90;;;;;;4976840;28;20096;-83
2020/12/25 00:06:57;;;;;;;23.45;12.70;;;3.70;77.00;;;;;;4994409;28;20038;-82
2020/12/25 00:09:23;;;;;;;27.85;14.15;;;3.70;77.00;;;;;;4977100;28;20480;-82
2020/12/25 00:11:50;;;;;;;24.35;12.70;;;3.70;77.00;;;;;;4976866;28;20102;-84
2020/12/25 00:14:17;;;;;;;25.83;12.93;;;3.80;77.10;;;;;;4994004;28;20045;-83
2020/12/25 00:16:44;;;;;;;28.70;14.18;;;3.70;77.10;;;;;;4994637;28;20109;-82
2020/12/25 00:19:12;;;;;;;25.00;13.35;;;3.70;77.70;;;;;;4994228;28;20450;-83
2020/12/25 00:21:38;;;;;;;26.08;12.60;;;3.70;77.10;;;;;;4960380;28;20093;-82
2020/12/25 00:24:08;;;;;;;25.02;13.10;;;3.70;77.20;;;;;;4976609;28;20045;-83
2020/12/25 00:26:35;;;;;;;24.73;11.95;;;3.70;77.20;;;;;;4976570;28;20034;-82
2020/12/25 00:29:03;;;;;;;24.58;12.70;;;3.70;77.30;;;;;;4960472;28;20572;-82
2020/12/25 00:31:31;;;;;;;24.13;12.18;;;3.70;77.40;;;;;;4976758;28;20120;-83
2020/12/25 00:34:03;;;;;;;26.88;12.88;;;3.70;77.50;;;;;;4993605;28;20509;-83
2020/12/25 00:36:55;;;;;;;24.55;12.80;;;3.70;77.40;;;;;;4993606;28;20501;-83
2020/12/25 00:39:21;;;;;;;24.40;13.40;;;3.70;77.50;;;;;;4989488;28;20046;-82
2020/12/25 00:41:51;;;;;;;21.90;11.77;;;3.80;77.50;;;;;;4993746;28;20030;-85
2020/12/25 00:44:19;;;;;;;27.52;13.48;;;3.70;77.60;;;;;;4960431;28;20046;-83
2020/12/25 00:46:47;;;;;;;23.05;11.82;;;3.80;77.60;;;;;;4993769;28;20069;-83
2020/12/25 00:49:17;;;;;;;23.77;12.18;;;3.80;77.70;;;;;;4993825;28;20552;-84
2020/12/25 00:51:47;;;;;;;21.08;11.80;;;3.80;77.60;;;;;;4993162;28;20034;-83
2020/12/25 00:54:13;;;;;;;22.10;11.70;;;3.80;77.60;;;;;;4961005;28;20264;-83
2020/12/25 00:56:59;;;;;;;26.42;13.35;;;3.80;77.60;;;;;;4965007;28;20524;-83
2020/12/25 00:59:41;;;;;;;24.38;12.75;;;3.80;77.60;;;;;;4976481;28;20049;-83
2020/12/25 01:02:06;;;;;;;23.45;11.40;;;3.90;77.70;;;;;;4993696;28;20064;-84
2020/12/25 01:04:32;;;;;;;23.83;12.15;;;3.80;77.70;;;;;;4993379;28;20507;-82
2020/12/25 01:06:58;;;;;;;22.10;11.52;;;3.80;77.70;;;;;;4960511;28;20048;-82
2020/12/25 01:09:24;;;;;;;24.00;12.30;;;3.80;77.90;;;;;;4976526;28;20113;-81
2020/12/25 01:11:51;;;;;;;24.17;12.57;;;3.80;78.00;;;;;;4993712;28;20574;-84
2020/12/25 01:14:17;;;;;;;22.08;12.10;;;3.80;77.90;;;;;;4997984;28;20046;-82
2020/12/25 01:16:43;;;;;;;23.95;12.20;;;3.80;77.90;;;;;;5000076;28;20038;-83
2020/12/25 01:19:08;;;;;;;26.25;12.23;;;3.80;77.90;;;;;;4995240;28;20089;-83
2020/12/25 01:21:34;;;;;;;22.98;11.80;;;3.80;78.00;;;;;;4976080;28;20034;-83
2020/12/25 01:24:00;;;;;;;24.88;12.85;;;3.80;78.10;;;;;;4975912;28;20410;-83
2020/12/25 01:26:26;;;;;;;20.15;11.40;;;3.80;78.10;;;;;;4975872;28;20478;-83
2020/12/25 01:28:54;;;;;;;24.52;12.85;;;3.80;78.00;;;;;;4993478;28;20061;-83
2020/12/25 01:31:20;;;;;;;21.77;11.95;;;3.80;78.10;;;;;;4992977;28;20568;-82
2020/12/25 01:33:47;;;;;;;22.17;10.95;;;3.90;78.10;;;;;;4993028;28;20494;-83
2020/12/25 01:36:14;;;;;;;23.80;11.90;;;3.90;78.20;;;;;;4975934;28;20045;-83
2020/12/25 01:38:41;;;;;;;21.33;11.63;;;3.90;78.30;;;;;;4993201;28;20038;-81
2020/12/25 01:41:08;;;;;;;22.85;11.55;;;3.90;78.30;;;;;;4993080;28;20042;-83
2020/12/25 01:43:36;;;;;;;22.67;11.82;;;3.90;78.40;;;;;;4992960;28;20137;-82
2020/12/25 01:46:02;;;;;;;24.88;12.68;;;3.90;78.40;;;;;;4993086;28;20119;-83
2020/12/25 01:48:28;;;;;;;24.80;11.98;;;3.90;78.50;;;;;;4975878;28;20042;-82
2020/12/25 01:50:55;;;;;;;22.60;11.57;;;3.90;78.60;;;;;;4992868;28;20402;-83
2020/12/25 01:53:22;;;;;;;21.05;11.07;;;3.90;78.60;;;;;;4975647;28;20045;-82
2020/12/25 01:55:49;;;;;;;22.70;11.77;;;3.90;78.60;;;;;;4992689;28;20425;-82
2020/12/25 01:58:17;;;;;;;20.55;11.13;;;3.90;78.60;;;;;;4959669;28;20177;-83
2020/12/25 02:00:49;;;;;;;20.45;10.98;;;3.90;78.70;;;;;;4975977;28;20038;-84
2020/12/25 02:03:15;;;;;;;19.95;11.18;;;3.90;78.70;;;;;;4975726;28;20038;-85
2020/12/25 02:05:45;;;;;;;20.33;11.90;;;3.90;78.80;;;;;;4996962;28;20043;-85
2020/12/25 02:08:13;;;;;;;23.25;11.75;;;3.90;78.80;;;;;;4979113;28;20493;-86
2020/12/25 02:10:40;;;;;;;22.55;10.73;;;3.90;78.90;;;;;;4979244;28;20375;-85
2020/12/25 02:13:07;;;;;;;20.90;11.60;;;3.90;79.10;;;;;;4996364;28;20038;-84
2020/12/25 02:15:35;;;;;;;21.58;11.68;;;3.90;79.20;;;;;;4978519;28;20452;-84
2020/12/25 02:18:02;;;;;;;21.70;11.35;;;3.90;79.30;;;;;;4979167;28;20077;-84
2020/12/25 02:20:29;;;;;;;20.23;11.70;;;3.90;79.30;;;;;;4996319;28;20046;-84
2020/12/25 02:22:55;;;;;;;21.33;10.85;;;3.90;79.40;;;;;;4996161;28;20549;-85
2020/12/25 02:25:21;;;;;;;20.17;10.82;;;3.90;79.30;;;;;;4978858;28;20050;-83
2020/12/25 02:27:48;;;;;;;21.25;11.60;;;3.90;79.20;;;;;;4996036;28;20153;-82
2020/12/25 02:30:14;;;;;;;21.60;10.98;;;3.90;79.20;;;;;;4995993;28;20548;-82
2020/12/25 02:32:41;;;;;;;19.20;10.95;;;4.00;79.40;;;;;;4996299;28;20041;-83
2020/12/25 02:35:07;;;;;;;18.60;10.18;;;4.00;79.50;;;;;;4978885;28;20034;-82
2020/12/25 02:37:34;;;;;;;23.05;11.98;;;4.00;80.00;;;;;;4996095;28;20437;-82
2020/12/25 02:40:06;;;;;;;21.85;11.88;;;4.00;79.50;;;;;;4978824;28;20125;-83
2020/12/25 02:42:32;;;;;;;16.98;9.93;;;4.00;79.60;;;;;;4996131;28;20033;-83
2020/12/25 02:44:58;;;;;;;18.50;10.63;;;3.90;79.70;;;;;;4996052;28;20387;-83
2020/12/25 02:47:23;;;;;;;21.25;11.88;;;3.90;79.80;;;;;;4995878;28;20027;-84
2020/12/25 02:49:51;;;;;;;20.10;10.60;;;3.90;79.90;;;;;;4996029;28;20493;-84
2020/12/25 02:52:18;;;;;;;17.80;10.82;;;3.90;79.90;;;;;;4978480;28;20046;-84
2020/12/25 02:54:44;;;;;;;17.33;9.65;;;4.00;79.90;;;;;;4978704;28;20486;-84
2020/12/25 02:57:09;;;;;;;19.33;10.65;;;4.00;80.20;;;;;;4995487;28;20112;-83
2020/12/25 02:59:39;;;;;;;15.05;10.38;;;4.00;80.20;;;;;;4978897;28;20034;-83
2020/12/25 03:02:07;;;;;;;21.17;11.90;;;4.00;80.20;;;;;;4995775;28;20031;-83
2020/12/25 03:04:34;;;;;;;16.23;10.30;;;4.00;80.30;;;;;;4995815;28;20125;-84
2020/12/25 03:07:00;;;;;;;16.13;9.48;;;4.00;80.40;;;;;;4978254;28;20053;-82
2020/12/25 03:09:26;;;;;;;16.85;10.07;;;4.00;80.40;;;;;;4995364;28;20041;-86
2020/12/25 03:11:52;;;;;;;15.48;9.75;;;4.00;80.50;;;;;;4995110;28;20402;-84
2020/12/25 03:14:18;;;;;;;14.85;9.30;;;4.00;80.60;;;;;;4995249;28;20549;-84
2020/12/25 03:16:44;;;;;;;16.83;9.75;;;4.00;81.20;;;;;;5006771;28;20054;-83
2020/12/25 03:19:10;;;;;;;15.68;9.30;;;4.00;80.60;;;;;;4981372;28;20033;-83
2020/12/25 03:21:36;;;;;;;13.57;8.95;;;4.00;80.70;;;;;;5014629;28;20068;-82
2020/12/25 03:24:02;;;;;;;17.73;9.93;;;4.00;80.90;;;;;;4997480;28;20045;-83
2020/12/25 03:26:29;;;;;;;18.17;10.07;;;4.00;80.80;;;;;;5012958;28;20032;-84
2020/12/25 03:28:56;;;;;;;13.38;8.50;;;4.00;80.90;;;;;;5000100;28;20058;-82
2020/12/25 03:31:22;;;;;;;15.15;8.85;;;4.00;81.00;;;;;;4995052;28;20041;-83
2020/12/25 03:33:49;;;;;;;12.85;8.48;;;4.00;81.00;;;;;;4977712;28;20062;-83
2020/12/25 03:36:15;;;;;;;17.27;8.30;;;4.00;81.00;;;;;;4988305;28;20053;-84
2020/12/25 03:38:41;;;;;;;13.30;8.40;;;4.00;81.00;;;;;;4971158;28;20522;-84
2020/12/25 03:41:07;;;;;;;14.13;9.07;;;4.00;80.90;;;;;;4979070;28;20046;-83
2020/12/25 03:43:33;;;;;;;13.43;8.45;;;4.00;80.90;;;;;;4976020;28;20121;-84
2020/12/25 03:46:00;;;;;;;13.48;8.20;;;4.00;81.00;;;;;;4958241;28;20039;-83
2020/12/25 03:48:26;;;;;;;12.65;7.72;;;4.00;80.90;;;;;;4993863;28;20038;-84
2020/12/25 03:50:55;;;;;;;11.30;7.53;;;4.00;80.80;;;;;;4993227;28;20042;-82
2020/12/25 03:53:21;;;;;;;12.60;6.50;;;3.90;80.70;;;;;;4985152;28;20041;-83
2020/12/25 03:55:47;;;;;;;11.98;6.57;;;4.00;80.70;;;;;;4959807;28;20031;-81
2020/12/25 03:58:13;;;;;;;12.13;6.97;;;4.00;80.50;;;;;;4973472;28;20031;-82
2020/12/25 04:00:39;;;;;;;13.32;6.45;;;4.00;80.50;;;;;;4956683;28;20129;-82
2020/12/25 04:03:05;;;;;;;9.10;6.05;;;4.00;80.50;;;;;;4974836;28;20039;-84
2020/12/25 04:05:31;;;;;;;9.18;5.93;;;4.00;80.40;;;;;;4974722;28;20039;-82
2020/12/25 04:07:57;;;;;;;9.15;6.13;;;4.00;80.30;;;;;;4957769;28;20043;-85
2020/12/25 04:10:23;;;;;;;9.88;5.53;;;4.10;80.20;;;;;;4975221;28;20043;-82
2020/12/25 04:12:49;;;;;;;8.98;5.75;;;4.00;80.20;;;;;;4974949;28;20038;-79
2020/12/25 04:15:15;;;;;;;10.07;5.80;;;4.00;80.20;;;;;;4974793;28;20034;-79
2020/12/25 04:17:41;;;;;;;9.50;5.32;;;4.00;80.00;;;;;;4957132;28;20078;-82
2020/12/25 04:20:07;;;;;;;10.80;6.05;;;4.00;80.00;;;;;;4974482;28;20428;-82
2020/12/25 04:22:33;;;;;;;7.32;5.07;;;4.00;79.90;;;;;;4974877;28;20035;-81
2020/12/25 04:24:59;;;;;;;8.77;5.10;;;4.00;79.90;;;;;;4974824;28;20565;-82
2020/12/25 04:27:25;;;;;;;8.63;5.05;;;4.00;80.00;;;;;;4976591;28;20042;-82
2020/12/25 04:29:51;;;;;;;9.10;5.32;;;4.00;80.00;;;;;;4977802;28;20466;-81
2020/12/25 04:32:17;;;;;;;8.70;5.15;;;4.00;80.10;;;;;;4994622;28;20044;-81
2020/12/25 04:34:43;;;;;;;10.45;6.32;;;4.00;80.00;;;;;;4994026;28;20048;-82
2020/12/25 04:37:08;;;;;;;10.10;6.00;;;4.00;80.00;;;;;;4993740;28;20034;-83
2020/12/25 04:39:35;;;;;;;11.65;6.22;;;4.00;80.20;;;;;;4993756;28;20414;-81
2020/12/25 04:42:01;;;;;;;7.63;5.60;;;4.00;80.30;;;;;;4993773;28;20486;-81
2020/12/25 04:44:27;;;;;;;11.43;6.15;;;4.00;80.20;;;;;;4993505;28;20042;-81
2020/12/25 04:46:59;;;;;;;10.85;6.25;;;4.10;80.30;;;;;;4976235;28;20046;-83
2020/12/25 04:49:25;;;;;;;12.10;7.22;;;4.00;80.40;;;;;;4993855;28;20037;-86
2020/12/25 04:51:51;;;;;;;12.45;7.32;;;4.00;80.40;;;;;;4993779;28;20482;-85
2020/12/25 04:54:17;;;;;;;14.27;8.27;;;4.00;80.40;;;;;;4993785;28;20091;-86
2020/12/25 04:56:42;;;;;;;14.43;8.63;;;4.00;80.50;;;;;;4976214;28;20061;-85
2020/12/25 04:59:08;;;;;;;14.20;8.57;;;4.10;80.40;;;;;;4976413;28;20078;-87
2020/12/25 05:01:40;;;;;;;15.05;9.55;;;4.10;80.40;;;;;;4993546;28;20538;-85
2020/12/25 05:04:18;;;;;;;16.60;9.05;;;4.10;80.40;;;;;;4960667;28;20038;-86
2020/12/25 05:06:52;;;;;;;18.50;10.70;;;4.10;80.40;;;;;;4975832;28;20042;-85
2020/12/25 05:09:25;;;;;;;17.23;10.63;;;4.10;80.40;;;;;;4994654;28;20409;-82
2020/12/25 05:11:56;;;;;;;15.38;10.25;;;4.00;80.40;;;;;;4976115;28;20046;-82
2020/12/25 05:14:32;;;;;;;19.45;11.52;;;4.00;81.10;;;;;;4994737;28;20038;-81
2020/12/25 05:16:59;;;;;;;19.25;12.27;;;4.00;80.60;;;;;;4983242;28;20533;-89
2020/12/25 05:19:27;;;;;;;21.10;12.00;;;4.00;80.50;;;;;;4995721;28;20038;-86
2020/12/25 05:21:58;;;;;;;18.65;11.70;;;4.00;80.60;;;;;;4994924;28;20042;-91
2020/12/25 05:24:25;;;;;;;20.00;12.45;;;4.00;80.50;;;;;;4996515;28;20053;-88
2020/12/25 05:26:52;;;;;;;16.13;11.30;;;4.00;80.50;;;;;;4994271;28;20037;-86
2020/12/25 05:29:20;;;;;;;19.48;12.05;;;4.00;80.60;;;;;;4993749;28;20120;-88
2020/12/25 05:31:52;;;;;;;18.00;11.88;;;3.90;80.60;;;;;;4993085;28;20100;-83
2020/12/25 05:34:18;;;;;;;19.60;12.52;;;3.90;80.60;;;;;;4976181;28;20054;-83
2020/12/25 05:36:52;;;;;;;16.95;11.13;;;3.80;80.70;;;;;;4993818;28;20073;-87
2020/12/25 05:39:26;;;;;;;17.70;10.73;;;3.80;80.70;;;;;;4977484;28;20061;-87
2020/12/25 05:41:56;;;;;;;15.40;10.95;;;3.70;80.60;;;;;;4997389;28;20409;-85
2020/12/25 05:44:24;;;;;;;15.77;11.50;;;3.60;80.60;;;;;;4979652;28;20042;-83
2020/12/25 05:46:50;;;;;;;15.50;9.77;;;3.60;80.70;;;;;;4996972;28;20064;-82
2020/12/25 05:49:16;;;;;;;13.13;8.93;;;3.60;80.70;;;;;;4997044;28;20438;-82
2020/12/25 05:51:49;;;;;;;13.10;8.38;;;3.50;80.80;;;;;;4996064;28;20040;-83
2020/12/25 05:54:22;;;;;;;12.38;7.93;;;3.50;80.60;;;;;;4996993;28;20490;-83
2020/12/25 05:56:55;;;;;;;13.32;7.80;;;3.40;80.60;;;;;;4996930;28;20058;-82
2020/12/25 05:59:46;;;;;;;10.65;6.80;;;3.40;80.70;;;;;;4997091;28;20038;-83
2020/12/25 06:02:15;;;;;;;9.63;6.20;;;3.50;80.70;;;;;;4979151;28;20034;-83
2020/12/25 06:04:41;;;;;;;11.80;6.90;;;3.40;80.40;;;;;;4979000;28;20038;-83
2020/12/25 06:07:10;;;;;;;9.50;5.63;;;3.40;80.20;;;;;;4996836;28;20125;-84
2020/12/25 06:09:44;;;;;;;9.30;5.20;;;3.40;80.10;;;;;;4996834;28;20041;-83
2020/12/25 06:12:14;;;;;;;10.65;5.72;;;3.30;80.00;;;;;;4979475;28;20045;-83
2020/12/25 06:14:40;;;;;;;9.07;5.45;;;3.30;79.90;;;;;;4979261;28;20069;-84
2020/12/25 06:17:27;;;;;;;10.10;5.63;;;3.20;79.90;;;;;;4997459;28;20065;-84
2020/12/25 06:20:02;;;;;;;10.27;5.00;;;3.20;79.80;;;;;;4982665;28;20100;-83
2020/12/25 06:22:33;;;;;;;9.13;4.88;;;3.20;79.80;;;;;;4983366;28;20042;-84
2020/12/25 06:25:01;;;;;;;8.05;5.05;;;3.20;79.70;;;;;;5000827;28;20038;-85
2020/12/25 06:27:28;;;;;;;10.20;5.22;;;3.10;79.70;;;;;;5000393;28;20045;-84
2020/12/25 06:30:00;;;;;;;8.23;5.03;;;3.20;79.60;;;;;;5001862;28;20405;-84
2020/12/25 06:32:27;;;;;;;9.75;5.85;;;3.20;79.50;;;;;;4998346;28;20054;-83
2020/12/25 06:35:01;;;;;;;7.93;4.63;;;3.20;79.30;;;;;;4996913;28;20046;-85
2020/12/25 06:37:30;;;;;;;12.57;5.60;;;3.10;79.30;;;;;;4979100;28;20049;-84
2020/12/25 06:40:04;;;;;;;9.35;5.65;;;3.10;79.20;;;;;;4962946;28;20116;-83
2020/12/25 06:42:34;;;;;;;10.75;4.82;;;3.10;79.70;;;;;;4995987;28;20073;-84
2020/12/25 06:45:06;;;;;;;10.70;5.40;;;3.00;78.90;;;;;;4978253;28;20470;-84
2020/12/25 06:47:34;;;;;;;7.80;5.07;;;3.00;79.10;;;;;;4995700;28;20031;-84
2020/12/25 06:50:11;;;;;;;9.55;5.78;;;3.00;78.90;;;;;;4995984;28;20042;-84
2020/12/25 06:53:01;;;;;;;11.68;5.30;;;3.00;79.10;;;;;;4996020;28;20042;-84
2020/12/25 06:55:41;;;;;;;8.30;5.13;;;3.00;79.10;;;;;;4996086;28;20045;-86
2020/12/25 06:58:08;;;;;;;10.98;5.72;;;3.00;79.10;;;;;;4978938;28;20085;-85
2020/12/25 07:00:34;;;;;;;10.38;6.28;;;3.10;78.90;;;;;;4995704;28;20050;-85
2020/12/25 07:03:11;;;;;;;9.88;5.90;;;3.10;78.70;;;;;;4996520;28;20121;-86
2020/12/25 07:05:50;;;;;;;12.35;6.30;;;3.10;79.20;;;;;;4995759;28;20047;-84
2020/12/25 07:08:33;;;;;;;13.00;5.55;;;3.10;79.70;;;;;;4978418;28;20558;-83
2020/12/25 07:11:04;;;;;;;11.57;6.00;;;3.00;79.90;;;;;;4995492;28;20503;-84
2020/12/25 07:13:31;;;;;;;8.73;5.45;;;3.00;80.00;;;;;;4995710;28;20043;-84
2020/12/25 07:15:57;;;;;;;12.65;6.22;;;3.10;80.20;;;;;;4995408;28;20121;-84
2020/12/25 07:18:24;;;;;;;11.40;5.70;;;3.10;80.20;;;;;;4995140;28;20038;-81
2020/12/25 07:20:50;;;;;;;8.75;5.32;;;3.10;80.10;;;;;;4977863;28;20062;-83
2020/12/25 07:23:18;;;;;;;10.68;5.68;;;3.00;80.10;;;;;;4995198;28;20084;-83
2020/12/25 07:25:44;;;;;;;12.93;6.07;;;3.00;80.00;;;;;;4994926;28;20030;-80
2020/12/25 07:28:11;;;;;;;11.55;5.78;;;3.00;80.20;;;;;;4977281;28;20430;-81
2020/12/25 07:30:37;;;;;;;12.63;5.93;;;3.00;79.90;;;;;;4994797;28;20041;-81
2020/12/25 07:33:06;;;;;;;8.88;5.40;;;3.00;79.70;;;;;;4995001;28;20034;-81
2020/12/25 07:35:32;;;;;;;11.25;6.28;;;2.90;79.60;;;;;;4994687;28;20030;-81
2020/12/25 07:37:59;;;;;;;9.82;5.32;;;2.90;79.30;;;;;;4977928;28;20077;-82
2020/12/25 07:40:25;;;;;;;10.73;5.85;;;2.90;79.30;;;;;;4977780;28;20039;-84
2020/12/25 07:42:51;;;;;;;9.38;5.72;;;3.00;79.20;;;;;;4977320;28;20048;-83
2020/12/25 07:45:18;;;;;;;10.20;5.63;;;3.10;79.10;;;;;;4994848;28;20395;-83
2020/12/25 07:47:47;;;;;;;9.73;5.40;;;3.10;78.80;;;;;;4994731;28;20061;-83
2020/12/25 07:50:13;;;;;;;10.93;5.70;;;3.20;78.60;;;;;;4961340;28;20038;-84
2020/12/25 07:52:42;;;;;;;12.15;6.00;;;3.20;78.40;;;;;;4961458;28;20084;-84
2020/12/25 07:55:16;;;;;;;9.32;5.55;;;3.30;78.20;;;;;;4977143;28;20042;-84
2020/12/25 07:57:42;;;;;;;10.75;5.68;;;3.30;78.00;;;;;;4994518;28;20074;-82
2020/12/25 08:00:08;;;;;;;11.90;6.47;;;3.40;77.90;;;;;;4994536;28;20564;-84
2020/12/25 08:02:35;;;;;;;10.68;5.38;;;3.40;77.80;;;;;;4976117;28;20038;-85
2020/12/25 08:05:01;;;;;;;10.07;6.05;;;3.40;77.60;;;;;;4978826;28;20092;-88
2020/12/25 08:07:27;;;;;;;12.23;6.68;;;3.50;77.50;;;;;;4995170;28;20045;-90
2020/12/25 08:14:24;;;;;;;;;;;;;;;;;;;;;
2020/12/25 08:18:33;;;;;;;13.65;6.57;;;3.60;76.90;;;;;;4910511;29;20548;-92
2020/12/25 08:56:49;;;;;;;11.80;6.47;;;3.70;74.50;;;;;;4839484;29;20058;-85
2020/12/25 08:59:20;;;;;;;14.38;7.30;;;3.70;74.40;;;;;;4933705;29;20055;-84
2020/12/25 09:01:50;;;;;;;11.68;7.68;;;3.70;74.30;;;;;;4965577;28;20414;-86
2020/12/25 09:04:18;;;;;;;13.98;6.85;;;3.70;74.00;;;;;;4976244;28;20046;-84
2020/12/25 09:06:48;;;;;;;11.93;6.32;;;3.70;74.10;;;;;;4968596;28;20041;-85
2020/12/25 09:09:14;;;;;;;12.15;6.88;;;3.70;73.80;;;;;;4978838;28;20038;-82
2020/12/25 09:11:40;;;;;;;11.50;6.93;;;3.70;73.80;;;;;;4998309;28;20100;-84
2020/12/25 09:14:06;;;;;;;15.90;7.78;;;3.70;73.60;;;;;;4994683;28;20117;-84
2020/12/25 09:16:32;;;;;;;10.68;6.95;;;3.70;73.30;;;;;;4993319;28;20184;-83
2020/12/25 09:18:59;;;;;;;15.05;7.30;;;3.70;73.30;;;;;;4975889;28;20038;-84
2020/12/25 09:21:27;;;;;;;9.90;6.72;;;3.80;73.20;;;;;;4993449;28;20050;-85
2020/12/25 09:23:56;;;;;;;12.55;6.95;;;3.80;72.90;;;;;;4977490;28;20034;-88
2020/12/25 09:26:23;;;;;;;10.30;6.57;;;3.70;72.90;;;;;;4996111;28;20049;-84
2020/12/25 09:28:49;;;;;;;11.15;6.85;;;3.80;72.90;;;;;;4975951;28;20031;-86
2020/12/25 09:31:15;;;;;;;10.30;6.38;;;3.80;72.50;;;;;;4993592;28;20030;-86
2020/12/25 09:33:42;;;;;;;10.48;6.85;;;3.80;72.50;;;;;;4993383;28;20038;-85
2020/12/25 09:36:09;;;;;;;10.60;7.00;;;3.80;72.50;;;;;;4993382;28;20465;-85
2020/12/25 09:38:42;;;;;;;10.85;6.55;;;3.90;72.60;;;;;;4992971;28;20042;-84
2020/12/25 09:41:08;;;;;;;13.32;7.28;;;3.80;72.30;;;;;;4993140;28;20085;-84
2020/12/25 09:43:35;;;;;;;11.73;6.75;;;3.80;72.20;;;;;;4976619;28;20038;-83
2020/12/25 09:46:02;;;;;;;13.38;6.57;;;3.80;72.80;;;;;;4994128;28;20413;-83
2020/12/25 09:48:28;;;;;;;9.68;6.10;;;3.80;72.00;;;;;;4976334;28;20089;-84
2020/12/25 09:50:54;;;;;;;12.27;6.88;;;3.80;71.80;;;;;;4975675;28;20046;-84
2020/12/25 09:53:20;;;;;;;12.07;6.50;;;3.80;71.90;;;;;;4994269;28;20038;-82
2020/12/25 09:55:48;;;;;;;11.40;6.75;;;3.80;71.80;;;;;;4962663;28;20042;-85
2020/12/25 09:58:14;;;;;;;12.45;7.70;;;3.90;71.80;;;;;;4962242;28;20053;-85
2020/12/25 10:00:40;;;;;;;11.73;6.88;;;3.80;71.70;;;;;;4960028;28;20026;-84
2020/12/25 10:03:06;;;;;;;11.88;6.70;;;3.90;71.80;;;;;;4993030;28;20037;-83
2020/12/25 10:05:32;;;;;;;12.38;6.53;;;3.80;71.50;;;;;;4994895;28;20053;-86
2020/12/25 10:07:58;;;;;;;11.20;6.30;;;3.90;71.70;;;;;;4994630;28;20038;-83
2020/12/25 10:10:25;;;;;;;10.38;6.38;;;3.90;71.80;;;;;;4993702;28;20545;-81
2020/12/25 10:12:52;;;;;;;9.52;6.18;;;3.90;71.70;;;;;;4994684;28;20042;-82
2020/12/25 10:15:18;;;;;;;11.63;7.50;;;3.90;71.70;;;;;;4996227;28;20046;-84
2020/12/25 10:17:44;;;;;;;12.02;6.50;;;3.90;71.60;;;;;;4993943;28;20453;-84
2020/12/25 10:20:10;;;;;;;11.25;6.53;;;3.90;71.50;;;;;;4975359;28;20038;-85
2020/12/25 10:22:36;;;;;;;10.55;6.68;;;3.90;71.50;;;;;;4992629;28;20343;-84
2020/12/25 10:25:02;;;;;;;16.17;6.45;;;3.90;71.30;;;;;;4994082;28;20042;-86
2020/12/25 10:27:28;;;;;;;10.95;6.43;;;3.90;71.40;;;;;;4978920;28;20065;-85
2020/12/25 10:29:54;;;;;;;12.30;6.72;;;3.90;71.30;;;;;;4962609;28;20077;-86
2020/12/25 10:32:20;;;;;;;10.27;6.45;;;3.90;71.20;;;;;;4996499;28;20499;-86
2020/12/25 10:34:46;;;;;;;11.07;5.80;;;3.90;71.10;;;;;;4979171;28;20062;-83
2020/12/25 10:37:12;;;;;;;12.73;6.82;;;3.90;71.00;;;;;;4978380;28;20512;-83
2020/12/25 10:39:38;;;;;;;13.38;6.70;;;3.90;71.00;;;;;;4979248;28;20038;-88
2020/12/25 10:42:11;;;;;;;9.75;6.45;;;3.90;70.90;;;;;;4996492;28;20506;-85
2020/12/25 10:44:37;;;;;;;10.02;6.15;;;3.90;70.80;;;;;;4978695;28;20049;-87
2020/12/25 10:47:04;;;;;;;9.75;6.55;;;3.80;70.60;;;;;;4978436;28;20030;-85
2020/12/25 10:49:30;;;;;;;8.68;5.72;;;3.80;70.50;;;;;;4978185;28;20038;-85
2020/12/25 10:51:56;;;;;;;11.63;6.20;;;3.80;70.60;;;;;;4995944;28;20038;-85
2020/12/25 10:54:22;;;;;;;10.68;6.18;;;3.80;70.30;;;;;;4996212;28;20058;-85
2020/12/25 10:56:48;;;;;;;12.30;6.30;;;3.80;70.70;;;;;;4996421;28;20088;-85
2020/12/25 10:59:14;;;;;;;9.48;5.85;;;3.80;70.30;;;;;;4996233;28;20034;-86
2020/12/25 11:01:40;;;;;;;8.43;5.35;;;3.80;70.40;;;;;;4998877;28;20046;-86
2020/12/25 11:04:06;;;;;;;10.93;5.97;;;3.80;70.20;;;;;;4999363;28;20030;-85
2020/12/25 11:06:34;;;;;;;10.40;6.00;;;3.80;70.20;;;;;;5006046;28;20040;-87
2020/12/25 11:09:00;;;;;;;14.82;6.90;;;3.80;70.40;;;;;;5004801;28;20130;-86
2020/12/25 11:11:32;;;;;;;9.13;5.63;;;3.80;70.30;;;;;;4998315;28;20069;-84
2020/12/25 11:13:58;;;;;;;9.05;5.78;;;3.80;70.10;;;;;;4995347;28;20498;-85
2020/12/25 11:16:29;;;;;;;11.00;5.97;;;3.80;70.00;;;;;;4977896;28;20049;-86
2020/12/25 11:18:56;;;;;;;10.50;6.68;;;3.80;70.00;;;;;;4995099;28;20046;-84
2020/12/25 11:21:26;;;;;;;10.93;6.28;;;3.70;69.90;;;;;;4978576;28;20509;-86
2020/12/25 11:23:53;;;;;;;9.10;5.63;;;3.70;69.90;;;;;;4978123;28;20042;-85
2020/12/25 11:26:25;;;;;;;11.65;6.55;;;3.70;69.90;;;;;;4995392;28;20077;-85
2020/12/25 11:28:55;;;;;;;10.90;6.60;;;3.70;70.00;;;;;;4977896;28;20072;-83
2020/12/25 11:31:22;;;;;;;12.80;7.00;;;3.70;69.80;;;;;;4994841;28;20049;-86
2020/12/25 11:33:49;;;;;;;8.05;5.22;;;3.70;69.90;;;;;;4996138;28;20045;-85
2020/12/25 11:36:21;;;;;;;11.85;6.30;;;3.70;70.00;;;;;;4977684;28;20490;-85
2020/12/25 11:38:47;;;;;;;13.18;6.50;;;3.70;69.90;;;;;;4977591;28;20402;-84
2020/12/25 11:41:15;;;;;;;11.48;6.50;;;3.60;69.90;;;;;;4977500;28;20386;-84
2020/12/25 11:43:42;;;;;;;10.05;5.60;;;3.70;69.90;;;;;;4994628;28;20038;-83
2020/12/25 11:46:08;;;;;;;10.30;6.18;;;3.70;69.80;;;;;;4977749;28;20409;-85
2020/12/25 11:48:35;;;;;;;9.95;6.60;;;3.70;69.80;;;;;;4994506;28;20566;-85
2020/12/25 11:51:01;;;;;;;10.30;5.93;;;3.60;69.70;;;;;;4977422;28;20030;-83
2020/12/25 11:53:27;;;;;;;12.95;6.65;;;3.70;69.70;;;;;;4977348;28;20042;-83
2020/12/25 11:55:53;;;;;;;12.48;6.40;;;3.60;69.70;;;;;;4995059;28;20085;-84
2020/12/25 11:58:19;;;;;;;10.93;6.60;;;3.60;69.60;;;;;;4994515;28;20213;-85
2020/12/25 12:00:45;;;;;;;10.57;6.60;;;3.60;69.60;;;;;;4977063;28;20158;-84
2020/12/25 12:03:11;;;;;;;10.63;6.40;;;3.60;69.70;;;;;;4994494;28;20512;-85
2020/12/25 12:05:42;;;;;;;11.32;6.97;;;3.60;69.70;;;;;;4994472;28;20042;-85
2020/12/25 12:08:10;;;;;;;9.95;6.50;;;3.60;69.60;;;;;;4994365;28;20401;-85
2020/12/25 12:10:36;;;;;;;10.88;6.15;;;3.60;69.50;;;;;;4994213;28;20126;-84
2020/12/25 12:13:02;;;;;;;8.40;5.82;;;3.60;69.50;;;;;;4995277;28;20041;-85
2020/12/25 12:15:28;;;;;;;11.48;6.20;;;3.50;69.50;;;;;;4993959;28;20150;-84
2020/12/25 12:17:54;;;;;;;10.57;6.38;;;3.50;69.50;;;;;;4960855;28;20075;-84
2020/12/25 12:20:20;;;;;;;8.82;5.90;;;3.50;69.50;;;;;;4976711;28;20070;-85
2020/12/25 12:22:46;;;;;;;10.43;6.30;;;3.50;69.50;;;;;;4995018;28;20038;-84
2020/12/25 12:25:12;;;;;;;9.93;6.55;;;3.50;69.50;;;;;;4995134;28;20049;-86
2020/12/25 12:27:38;;;;;;;13.10;7.00;;;3.50;69.40;;;;;;4977253;28;20490;-84
2020/12/25 12:30:08;;;;;;;10.60;6.10;;;3.50;69.30;;;;;;4977510;28;20077;-84
2020/12/25 12:32:34;;;;;;;10.38;5.90;;;3.50;69.20;;;;;;4994620;28;20038;-84
2020/12/25 12:35:01;;;;;;;10.43;6.82;;;3.50;69.10;;;;;;4994902;28;20042;-85
2020/12/25 12:37:26;;;;;;;12.15;6.55;;;3.50;69.10;;;;;;4995148;28;20073;-84
2020/12/25 12:39:52;;;;;;;10.68;6.40;;;3.50;69.00;;;;;;4994870;28;20478;-86
2020/12/25 12:42:18;;;;;;;12.50;6.47;;;3.50;69.10;;;;;;4997061;28;20041;-84
2020/12/25 12:44:44;;;;;;;10.27;6.50;;;3.40;68.90;;;;;;4983560;28;20077;-84
2020/12/25 12:47:10;;;;;;;9.27;6.28;;;3.50;69.00;;;;;;4983579;28;20061;-85
2020/12/25 12:49:36;;;;;;;10.82;6.38;;;3.50;68.90;;;;;;5001007;28;20038;-87
2020/12/25 12:52:02;;;;;;;10.23;7.05;;;3.40;68.70;;;;;;5001636;28;20038;-87
2020/12/25 12:54:28;;;;;;;9.48;7.20;;;3.40;68.80;;;;;;4999429;28;20061;-84
2020/12/25 12:56:54;;;;;;;8.50;6.35;;;3.40;68.90;;;;;;5000123;28;20061;-84
2020/12/25 12:59:20;;;;;;;10.98;7.15;;;3.40;68.90;;;;;;4985513;28;20030;-85
2020/12/25 13:01:45;;;;;;;11.50;7.45;;;3.40;68.80;;;;;;5002790;28;20056;-86
2020/12/25 13:04:11;;;;;;;10.73;7.97;;;3.40;68.70;;;;;;4996328;28;20495;-84
2020/12/25 13:06:37;;;;;;;11.32;7.00;;;3.40;68.70;;;;;;4982245;28;20041;-85
2020/12/25 13:09:04;;;;;;;10.40;7.20;;;3.40;68.70;;;;;;4996174;28;20042;-83
2020/12/25 13:11:31;;;;;;;9.70;6.88;;;3.40;68.80;;;;;;4996108;28;20054;-83
2020/12/25 13:13:57;;;;;;;11.23;7.65;;;3.40;68.70;;;;;;4980784;28;20563;-81
2020/12/25 13:16:24;;;;;;;10.68;6.85;;;3.40;68.70;;;;;;4998467;28;20096;-84
2020/12/25 13:18:51;;;;;;;12.15;7.25;;;3.40;68.60;;;;;;4982913;28;20599;-84
2020/12/25 13:21:27;;;;;;;13.88;8.38;;;3.40;68.60;;;;;;4997338;28;20044;-84
2020/12/25 13:23:54;;;;;;;11.13;7.75;;;3.40;68.70;;;;;;4993795;28;20045;-85
2020/12/25 13:26:21;;;;;;;10.65;7.43;;;3.40;68.70;;;;;;4976556;28;20406;-85
2020/12/25 13:28:48;;;;;;;11.80;7.45;;;3.40;68.70;;;;;;4976608;28;20112;-84
2020/12/25 13:31:16;;;;;;;11.15;7.53;;;3.40;68.70;;;;;;4994221;28;20490;-85
2020/12/25 13:33:42;;;;;;;14.95;7.95;;;3.40;68.60;;;;;;4960560;28;20129;-86